Time;durP1;ratioP1;P1;durP2;ratioP2;P2;SDS_P1;SDS_P2;PMS_P1;PMS_P2;Temp;Humidity;BMP_temperature;BMP_pressure;BME280_temperature;BME280_humidity;BME280_pressure;Samples;Min_cycle;Max_cycle;Signal;HPM_P1;HPM_P2
2021/11/03 00:00:29;;;;;;;0.50;0.50;;;;;;;;;;5033145;28;20192;-64
2021/11/03 00:02:56;;;;;;;0.40;0.40;;;;;;;;;;5033653;28;20187;-64
2021/11/03 00:05:22;;;;;;;0.40;0.40;;;;;;;;;;5033004;28;20571;-64
2021/11/03 00:07:48;;;;;;;0.50;0.50;;;;;;;;;;5033359;28;20215;-64
2021/11/03 00:10:15;;;;;;;0.50;0.50;;;;;;;;;;5032937;28;20443;-64
2021/11/03 00:12:41;;;;;;;0.50;0.50;;;;;;;;;;5033141;28;20203;-64
2021/11/03 00:15:07;;;;;;;0.40;0.40;;;;;;;;;;5015321;28;20202;-64
2021/11/03 00:17:33;;;;;;;0.50;0.50;;;;;;;;;;5033071;28;20924;-64
2021/11/03 00:19:59;;;;;;;0.40;0.40;;;;;;;;;;5015122;28;20176;-64
2021/11/03 00:22:25;;;;;;;0.40;0.40;;;;;;;;;;5032780;28;20431;-64
2021/11/03 00:24:51;;;;;;;0.40;0.40;;;;;;;;;;5033065;28;20540;-64
2021/11/03 00:27:17;;;;;;;0.40;0.40;;;;;;;;;;5032941;28;20196;-64
2021/11/03 00:29:43;;;;;;;0.40;0.40;;;;;;;;;;5033093;28;20508;-65
2021/11/03 00:32:10;;;;;;;0.40;0.40;;;;;;;;;;5014501;28;20508;-64
2021/11/03 00:34:36;;;;;;;0.50;0.50;;;;;;;;;;5032924;28;20458;-64
2021/11/03 00:37:02;;;;;;;0.40;0.40;;;;;;;;;;5014909;28;20177;-64
2021/11/03 00:39:28;;;;;;;0.40;0.40;;;;;;;;;;5032839;28;20210;-64
2021/11/03 00:41:54;;;;;;;0.40;0.40;;;;;;;;;;5032367;28;20956;-64
2021/11/03 00:44:20;;;;;;;0.50;0.50;;;;;;;;;;5032715;28;21004;-64
2021/11/03 00:46:46;;;;;;;0.40;0.40;;;;;;;;;;5032559;28;20181;-64
2021/11/03 00:49:12;;;;;;;0.40;0.40;;;;;;;;;;5032432;28;20237;-64
2021/11/03 00:51:38;;;;;;;0.40;0.40;;;;;;;;;;5031917;28;20204;-64
2021/11/03 00:54:04;;;;;;;0.40;0.40;;;;;;;;;;5032649;28;20211;-64
2021/11/03 00:56:31;;;;;;;0.40;0.40;;;;;;;;;;5032357;28;20799;-64
2021/11/03 00:58:57;;;;;;;0.50;0.50;;;;;;;;;;5032830;28;20183;-64
2021/11/03 01:01:22;;;;;;;0.50;0.50;;;;;;;;;;5031380;28;20191;-64
2021/11/03 01:03:49;;;;;;;0.40;0.40;;;;;;;;;;5032656;28;20465;-64
2021/11/03 01:06:15;;;;;;;0.40;0.40;;;;;;;;;;5032597;28;20421;-64
2021/11/03 01:08:42;;;;;;;0.40;0.40;;;;;;;;;;5032130;28;20199;-64
2021/11/03 01:11:07;;;;;;;0.40;0.40;;;;;;;;;;5032377;28;20197;-64
2021/11/03 01:13:33;;;;;;;0.40;0.40;;;;;;;;;;5033275;28;20208;-64
2021/11/03 01:16:00;;;;;;;0.40;0.40;;;;;;;;;;5033778;28;20430;-63
2021/11/03 01:18:27;;;;;;;0.40;0.40;;;;;;;;;;5033380;28;20191;-64
2021/11/03 01:20:53;;;;;;;0.50;0.50;;;;;;;;;;5032495;28;20246;-64
2021/11/03 01:23:20;;;;;;;0.50;0.50;;;;;;;;;;5032664;28;20199;-64
2021/11/03 01:25:46;;;;;;;0.40;0.40;;;;;;;;;;5032350;28;20978;-64
2021/11/03 01:28:12;;;;;;;0.40;0.40;;;;;;;;;;5031872;28;20262;-64
2021/11/03 01:30:38;;;;;;;0.40;0.40;;;;;;;;;;5031904;28;20434;-63
2021/11/03 01:33:04;;;;;;;0.40;0.40;;;;;;;;;;5031367;28;20862;-63
2021/11/03 01:35:31;;;;;;;0.50;0.50;;;;;;;;;;5032258;28;20679;-64
2021/11/03 01:37:57;;;;;;;0.40;0.40;;;;;;;;;;5031750;28;20632;-64
2021/11/03 01:40:24;;;;;;;0.40;0.40;;;;;;;;;;5031432;28;20200;-63
2021/11/03 01:42:50;;;;;;;0.40;0.40;;;;;;;;;;5031588;28;20188;-63
2021/11/03 01:45:19;;;;;;;0.50;0.50;;;;;;;;;;5014098;28;20176;-64
2021/11/03 01:47:49;;;;;;;0.40;0.40;;;;;;;;;;5031962;28;20176;-63
2021/11/03 01:50:26;;;;;;;0.50;0.50;;;;;;;;;;5031217;28;20354;-64
2021/11/03 01:52:55;;;;;;;0.40;0.40;;;;;;;;;;5031177;28;20207;-63
2021/11/03 01:55:22;;;;;;;0.50;0.50;;;;;;;;;;5031497;28;20182;-62
2021/11/03 01:57:50;;;;;;;0.40;0.40;;;;;;;;;;5031567;28;20221;-65
2021/11/03 02:00:19;;;;;;;0.50;0.50;;;;;;;;;;5013233;28;20254;-65
2021/11/03 02:02:45;;;;;;;0.50;0.50;;;;;;;;;;5031385;28;20187;-65
2021/11/03 02:05:12;;;;;;;0.50;0.50;;;;;;;;;;5031299;28;20638;-65
2021/11/03 02:07:39;;;;;;;0.40;0.40;;;;;;;;;;5031165;28;20615;-65
2021/11/03 02:10:06;;;;;;;0.40;0.40;;;;;;;;;;5031014;28;20200;-65
2021/11/03 02:12:32;;;;;;;0.40;0.40;;;;;;;;;;5031364;28;20210;-65
2021/11/03 02:14:58;;;;;;;0.60;0.60;;;;;;;;;;5035559;28;20176;-65
2021/11/03 02:17:25;;;;;;;0.50;0.50;;;;;;;;;;5023799;28;20528;-66
2021/11/03 02:19:52;;;;;;;0.40;0.40;;;;;;;;;;5035023;28;20181;-66
2021/11/03 02:22:25;;;;;;;0.50;0.50;;;;;;;;;;5017186;28;20183;-65
2021/11/03 02:25:00;;;;;;;0.40;0.40;;;;;;;;;;5017300;28;20621;-66
2021/11/03 02:27:27;;;;;;;0.40;0.40;;;;;;;;;;5035229;28;20184;-65
2021/11/03 02:29:54;;;;;;;0.50;0.50;;;;;;;;;;5034917;28;20195;-66
2021/11/03 02:32:22;;;;;;;0.40;0.40;;;;;;;;;;5034177;28;20226;-65
2021/11/03 02:34:48;;;;;;;0.40;0.40;;;;;;;;;;5035068;28;20170;-65
2021/11/03 02:37:26;;;;;;;0.40;0.40;;;;;;;;;;5034648;28;20204;-65
2021/11/03 02:39:54;;;;;;;0.40;0.40;;;;;;;;;;5035060;28;20172;-65
2021/11/03 02:42:20;;;;;;;0.50;0.50;;;;;;;;;;5034217;28;20267;-65
2021/11/03 02:44:48;;;;;;;0.40;0.40;;;;;;;;;;5035164;28;20696;-65
2021/11/03 02:47:14;;;;;;;0.40;0.40;;;;;;;;;;5034616;28;20181;-65
2021/11/03 02:49:40;;;;;;;0.40;0.40;;;;;;;;;;5034536;28;20176;-64
2021/11/03 02:52:14;;;;;;;0.40;0.40;;;;;;;;;;5034387;28;20294;-65
2021/11/03 02:54:40;;;;;;;0.40;0.40;;;;;;;;;;5034622;28;20582;-65
2021/11/03 02:57:07;;;;;;;0.40;0.40;;;;;;;;;;5034085;28;20170;-65
2021/11/03 02:59:34;;;;;;;0.40;0.40;;;;;;;;;;5034795;28;20914;-65
2021/11/03 03:02:01;;;;;;;0.40;0.40;;;;;;;;;;5034171;28;20708;-65
2021/11/03 03:04:37;;;;;;;0.40;0.40;;;;;;;;;;5034080;28;20184;-65
2021/11/03 03:07:04;;;;;;;0.40;0.40;;;;;;;;;;5034141;28;20211;-65
2021/11/03 03:09:30;;;;;;;0.40;0.40;;;;;;;;;;5034615;28;20251;-65
2021/11/03 03:11:58;;;;;;;0.40;0.40;;;;;;;;;;5033794;28;20204;-65
2021/11/03 03:14:25;;;;;;;0.50;0.50;;;;;;;;;;5034479;28;20711;-65
2021/11/03 03:16:51;;;;;;;0.40;0.40;;;;;;;;;;5033988;28;20180;-65
2021/11/03 03:19:17;;;;;;;0.40;0.40;;;;;;;;;;5034302;28;20172;-65
2021/11/03 03:21:44;;;;;;;0.50;0.50;;;;;;;;;;5066549;22;20228;-66
2021/11/03 03:24:10;;;;;;;0.40;0.40;;;;;;;;;;5048525;28;20187;-66
2021/11/03 03:26:37;;;;;;;0.40;0.40;;;;;;;;;;5035727;28;20183;-66
2021/11/03 03:29:04;;;;;;;0.40;0.40;;;;;;;;;;5045569;28;20670;-67
2021/11/03 03:31:30;;;;;;;0.50;0.50;;;;;;;;;;5033577;28;20238;-66
2021/11/03 03:33:57;;;;;;;0.40;0.40;;;;;;;;;;5033669;28;20216;-64
2021/11/03 03:36:23;;;;;;;0.40;0.40;;;;;;;;;;5033838;28;20179;-66
2021/11/03 03:38:50;;;;;;;0.40;0.40;;;;;;;;;;5034056;28;20693;-65
2021/11/03 03:41:17;;;;;;;0.40;0.40;;;;;;;;;;5033627;28;20801;-65
2021/11/03 03:43:43;;;;;;;0.40;0.40;;;;;;;;;;5033619;28;20195;-63
2021/11/03 03:46:09;;;;;;;0.40;0.40;;;;;;;;;;5033569;28;20227;-64
2021/11/03 03:48:35;;;;;;;0.40;0.40;;;;;;;;;;5033443;28;20274;-64
2021/11/03 03:51:01;;;;;;;0.50;0.50;;;;;;;;;;5033263;28;20702;-65
2021/11/03 03:53:27;;;;;;;0.30;0.30;;;;;;;;;;5033447;28;20500;-63
2021/11/03 03:55:53;;;;;;;0.40;0.40;;;;;;;;;;5033176;28;20227;-64
2021/11/03 03:58:20;;;;;;;0.40;0.40;;;;;;;;;;5033200;28;20426;-65
2021/11/03 04:00:47;;;;;;;0.40;0.40;;;;;;;;;;5032962;28;20438;-64
2021/11/03 04:03:13;;;;;;;0.40;0.40;;;;;;;;;;5033196;28;20662;-65
2021/11/03 04:05:39;;;;;;;0.40;0.40;;;;;;;;;;5032957;28;20217;-64
2021/11/03 04:08:05;;;;;;;0.40;0.40;;;;;;;;;;5033078;28;20217;-64
2021/11/03 04:10:31;;;;;;;0.40;0.40;;;;;;;;;;5032951;28;20198;-64
2021/11/03 04:12:57;;;;;;;0.50;0.50;;;;;;;;;;5032981;28;20679;-64
2021/11/03 04:15:23;;;;;;;0.40;0.40;;;;;;;;;;5032969;28;20432;-65
2021/11/03 04:17:49;;;;;;;0.40;0.40;;;;;;;;;;5032915;28;20187;-63
2021/11/03 04:20:16;;;;;;;0.50;0.50;;;;;;;;;;5032530;28;20428;-64
2021/11/03 04:22:43;;;;;;;0.40;0.40;;;;;;;;;;5033329;28;20418;-64
2021/11/03 04:25:09;;;;;;;0.40;0.40;;;;;;;;;;5032979;28;20223;-65
2021/11/03 04:27:35;;;;;;;0.40;0.40;;;;;;;;;;5032697;28;20188;-64
2021/11/03 04:30:02;;;;;;;0.40;0.40;;;;;;;;;;5032836;28;20186;-65
2021/11/03 04:32:28;;;;;;;0.50;0.50;;;;;;;;;;5032263;28;20217;-65
2021/11/03 04:34:54;;;;;;;0.40;0.40;;;;;;;;;;5032708;28;20188;-65
2021/11/03 04:37:20;;;;;;;0.40;0.40;;;;;;;;;;5032196;28;20417;-65
2021/11/03 04:39:46;;;;;;;0.40;0.40;;;;;;;;;;5032866;28;20186;-66
2021/11/03 04:42:12;;;;;;;0.50;0.50;;;;;;;;;;5032197;28;20200;-64
2021/11/03 04:44:39;;;;;;;0.40;0.40;;;;;;;;;;5032494;28;20762;-64
2021/11/03 04:47:05;;;;;;;0.40;0.40;;;;;;;;;;5031704;28;20183;-65
2021/11/03 04:49:31;;;;;;;0.50;0.50;;;;;;;;;;5032600;28;20175;-64
2021/11/03 04:51:57;;;;;;;0.40;0.40;;;;;;;;;;5031221;28;20189;-64
2021/11/03 04:54:23;;;;;;;0.40;0.40;;;;;;;;;;5032527;28;20229;-65
2021/11/03 04:56:50;;;;;;;0.40;0.40;;;;;;;;;;5032222;28;20184;-64
2021/11/03 04:59:16;;;;;;;0.40;0.40;;;;;;;;;;5031997;28;20828;-65
2021/11/03 05:01:42;;;;;;;0.40;0.40;;;;;;;;;;5031853;28;20305;-65
2021/11/03 05:04:08;;;;;;;0.40;0.40;;;;;;;;;;5032363;28;20631;-63
2021/11/03 05:06:35;;;;;;;0.40;0.40;;;;;;;;;;5031632;28;20263;-64
2021/11/03 05:09:03;;;;;;;0.50;0.50;;;;;;;;;;5031847;28;20448;-64
2021/11/03 05:11:29;;;;;;;0.40;0.40;;;;;;;;;;5014086;28;20586;-64
2021/11/03 05:13:56;;;;;;;0.40;0.40;;;;;;;;;;5032138;28;20206;-64
2021/11/03 05:16:23;;;;;;;0.50;0.50;;;;;;;;;;5031683;28;20284;-65
2021/11/03 05:18:49;;;;;;;0.50;0.50;;;;;;;;;;5031845;28;20191;-64
2021/11/03 05:21:15;;;;;;;0.50;0.50;;;;;;;;;;5031241;28;20215;-63
2021/11/03 05:23:42;;;;;;;0.40;0.40;;;;;;;;;;5031065;28;20633;-64
2021/11/03 05:26:08;;;;;;;0.40;0.40;;;;;;;;;;5023472;28;20509;-62
2021/11/03 05:28:35;;;;;;;0.45;0.45;;;;;;;;;;5029908;28;20180;-63
2021/11/03 05:31:02;;;;;;;0.40;0.40;;;;;;;;;;5031279;28;20191;-64
2021/11/03 05:33:28;;;;;;;0.50;0.50;;;;;;;;;;5031017;28;20217;-62
2021/11/03 05:35:54;;;;;;;0.50;0.50;;;;;;;;;;5031651;28;20787;-64
2021/11/03 05:38:20;;;;;;;0.50;0.50;;;;;;;;;;5031409;28;20462;-62
2021/11/03 05:40:46;;;;;;;0.40;0.40;;;;;;;;;;5030297;28;20293;-58
2021/11/03 05:43:12;;;;;;;0.40;0.40;;;;;;;;;;5031062;28;20811;-63
2021/11/03 05:45:38;;;;;;;0.40;0.40;;;;;;;;;;5030870;28;20411;-65
2021/11/03 05:48:04;;;;;;;0.40;0.40;;;;;;;;;;5029440;28;20418;-64
2021/11/03 05:50:32;;;;;;;0.40;0.40;;;;;;;;;;5029883;28;20378;-65
2021/11/03 05:52:59;;;;;;;0.40;0.40;;;;;;;;;;5031488;28;20229;-64
2021/11/03 05:55:25;;;;;;;0.40;0.40;;;;;;;;;;5030748;28;20255;-65
2021/11/03 05:57:51;;;;;;;0.40;0.40;;;;;;;;;;5031381;28;20186;-65
2021/11/03 06:00:28;;;;;;;0.40;0.40;;;;;;;;;;5031035;28;20177;-65
2021/11/03 06:02:54;;;;;;;0.40;0.40;;;;;;;;;;5031374;28;20183;-65
2021/11/03 06:05:21;;;;;;;0.40;0.40;;;;;;;;;;5031324;28;20221;-64
2021/11/03 06:07:51;;;;;;;0.40;0.40;;;;;;;;;;5031344;28;20429;-65
2021/11/03 06:10:19;;;;;;;0.47;0.47;;;;;;;;;;5031163;28;20652;-65
2021/11/03 06:12:45;;;;;;;0.40;0.40;;;;;;;;;;5013412;28;20256;-65
2021/11/03 06:15:11;;;;;;;0.40;0.40;;;;;;;;;;5031212;28;20643;-64
2021/11/03 06:17:37;;;;;;;0.40;0.40;;;;;;;;;;5031387;28;21140;-65
2021/11/03 06:20:03;;;;;;;0.50;0.50;;;;;;;;;;5031222;28;20763;-63
2021/11/03 06:22:29;;;;;;;0.40;0.40;;;;;;;;;;5031249;28;20458;-64
2021/11/03 06:24:56;;;;;;;0.40;0.40;;;;;;;;;;5031496;28;20186;-65
2021/11/03 06:27:22;;;;;;;0.40;0.40;;;;;;;;;;5031422;28;20417;-65
2021/11/03 06:29:48;;;;;;;0.50;0.50;;;;;;;;;;5031199;28;20189;-65
2021/11/03 06:32:14;;;;;;;0.40;0.40;;;;;;;;;;5030943;28;20296;-65
2021/11/03 06:34:40;;;;;;;0.50;0.50;;;;;;;;;;5031179;28;20418;-65
2021/11/03 06:37:06;;;;;;;0.50;0.50;;;;;;;;;;5031284;28;20422;-65
2021/11/03 06:39:32;;;;;;;0.40;0.40;;;;;;;;;;5031285;28;20411;-65
2021/11/03 06:41:59;;;;;;;0.40;0.40;;;;;;;;;;5030875;28;20197;-65
2021/11/03 06:44:25;;;;;;;0.40;0.40;;;;;;;;;;5030919;28;20197;-65
2021/11/03 06:46:51;;;;;;;0.50;0.50;;;;;;;;;;5031131;28;20322;-65
2021/11/03 06:49:17;;;;;;;0.40;0.40;;;;;;;;;;5031159;28;20438;-65
2021/11/03 06:51:43;;;;;;;0.40;0.40;;;;;;;;;;5030741;28;20430;-65
2021/11/03 06:54:09;;;;;;;0.40;0.40;;;;;;;;;;5031146;28;20771;-65
2021/11/03 06:56:35;;;;;;;0.40;0.40;;;;;;;;;;5031057;28;20247;-65
2021/11/03 06:59:02;;;;;;;0.40;0.40;;;;;;;;;;5032096;28;20403;-65
2021/11/03 07:01:28;;;;;;;0.40;0.40;;;;;;;;;;5034404;28;20200;-65
2021/11/03 07:03:55;;;;;;;0.40;0.40;;;;;;;;;;5034682;28;20172;-64
2021/11/03 07:06:21;;;;;;;0.40;0.40;;;;;;;;;;5034453;28;20192;-65
2021/11/03 07:08:51;;;;;;;0.40;0.40;;;;;;;;;;5034487;28;20652;-65
2021/11/03 07:11:17;;;;;;;0.40;0.40;;;;;;;;;;5034464;28;20517;-65
2021/11/03 07:13:43;;;;;;;0.40;0.40;;;;;;;;;;5034493;28;20255;-65
2021/11/03 07:16:09;;;;;;;0.40;0.40;;;;;;;;;;5034415;28;20747;-65
2021/11/03 07:18:35;;;;;;;0.50;0.50;;;;;;;;;;5034304;28;20403;-65
2021/11/03 07:21:01;;;;;;;0.40;0.40;;;;;;;;;;5033922;28;20215;-65
2021/11/03 07:23:27;;;;;;;0.40;0.40;;;;;;;;;;5034244;28;20421;-65
2021/11/03 07:25:54;;;;;;;0.40;0.40;;;;;;;;;;5034164;28;20446;-63
2021/11/03 07:28:20;;;;;;;0.40;0.40;;;;;;;;;;5033999;28;20492;-65
2021/11/03 07:30:46;;;;;;;0.40;0.40;;;;;;;;;;5033575;28;20205;-65
2021/11/03 07:33:12;;;;;;;0.40;0.40;;;;;;;;;;5034154;28;20457;-65
2021/11/03 07:35:39;;;;;;;0.40;0.40;;;;;;;;;;5034055;28;20435;-65
2021/11/03 07:38:05;;;;;;;0.40;0.40;;;;;;;;;;5034131;28;20176;-65
2021/11/03 07:40:35;;;;;;;0.40;0.40;;;;;;;;;;5033896;28;20196;-65
2021/11/03 07:43:02;;;;;;;0.40;0.40;;;;;;;;;;5033961;28;20180;-64
2021/11/03 07:45:29;;;;;;;0.45;0.45;;;;;;;;;;5033982;28;20192;-64
2021/11/03 07:47:56;;;;;;;0.40;0.40;;;;;;;;;;5033881;28;20601;-65
2021/11/03 07:50:24;;;;;;;0.40;0.40;;;;;;;;;;5033523;28;20338;-65
2021/11/03 07:52:50;;;;;;;0.40;0.40;;;;;;;;;;5033738;28;20681;-65
2021/11/03 07:55:16;;;;;;;0.40;0.40;;;;;;;;;;5033581;28;20203;-64
2021/11/03 07:57:43;;;;;;;0.40;0.40;;;;;;;;;;5033662;28;20410;-65
2021/11/03 08:00:10;;;;;;;0.40;0.40;;;;;;;;;;5033454;28;20196;-64
2021/11/03 08:02:36;;;;;;;0.40;0.40;;;;;;;;;;5033493;28;20177;-65
2021/11/03 08:05:02;;;;;;;0.40;0.40;;;;;;;;;;5033556;28;20187;-65
2021/11/03 08:07:28;;;;;;;0.40;0.40;;;;;;;;;;5033581;28;20506;-65
2021/11/03 08:09:54;;;;;;;0.40;0.40;;;;;;;;;;5033147;28;20422;-65
2021/11/03 08:12:20;;;;;;;0.40;0.40;;;;;;;;;;5033187;28;20215;-65
2021/11/03 08:14:46;;;;;;;0.50;0.50;;;;;;;;;;5033522;28;20419;-65
2021/11/03 08:17:21;;;;;;;0.50;0.50;;;;;;;;;;5032806;28;20701;-65
2021/11/03 08:19:49;;;;;;;0.40;0.40;;;;;;;;;;5033204;28;20180;-65
2021/11/03 08:22:20;;;;;;;0.40;0.40;;;;;;;;;;5032855;28;20211;-65
2021/11/03 08:24:46;;;;;;;0.40;0.40;;;;;;;;;;5033289;28;20212;-64
2021/11/03 08:27:12;;;;;;;0.40;0.40;;;;;;;;;;5033052;28;20184;-65
2021/11/03 08:29:39;;;;;;;0.40;0.40;;;;;;;;;;5033192;28;20180;-65
2021/11/03 08:32:06;;;;;;;0.50;0.50;;;;;;;;;;5032638;28;20419;-65
2021/11/03 08:34:33;;;;;;;0.40;0.40;;;;;;;;;;5032879;28;20184;-65
2021/11/03 08:37:02;;;;;;;0.40;0.40;;;;;;;;;;5032874;28;20180;-65
2021/11/03 08:39:28;;;;;;;0.40;0.40;;;;;;;;;;5028022;28;20661;-65
2021/11/03 08:41:54;;;;;;;0.30;0.30;;;;;;;;;;4994783;28;20194;-64
2021/11/03 08:44:20;;;;;;;0.40;0.40;;;;;;;;;;5012662;28;20972;-63
2021/11/03 08:46:46;;;;;;;0.40;0.40;;;;;;;;;;5012788;28;20789;-65
2021/11/03 08:49:12;;;;;;;0.40;0.40;;;;;;;;;;5012834;28;20507;-64
2021/11/03 08:51:39;;;;;;;0.40;0.40;;;;;;;;;;5012369;28;20440;-65
2021/11/03 08:54:07;;;;;;;0.40;0.40;;;;;;;;;;5012647;28;20466;-65
2021/11/03 08:56:35;;;;;;;0.40;0.40;;;;;;;;;;5012852;28;20178;-65
2021/11/03 08:59:03;;;;;;;0.40;0.40;;;;;;;;;;5012680;28;20584;-65
2021/11/03 09:01:29;;;;;;;0.40;0.40;;;;;;;;;;5012345;28;20189;-65
2021/11/03 09:03:55;;;;;;;0.40;0.40;;;;;;;;;;5013195;28;20191;-64
2021/11/03 09:06:21;;;;;;;0.40;0.40;;;;;;;;;;5012525;28;20178;-65
2021/11/03 09:08:49;;;;;;;0.50;0.50;;;;;;;;;;5012418;28;20421;-65
2021/11/03 09:11:15;;;;;;;0.40;0.40;;;;;;;;;;5012156;28;20439;-64
2021/11/03 09:13:41;;;;;;;0.40;0.40;;;;;;;;;;5012338;28;20205;-63
2021/11/03 09:16:07;;;;;;;0.40;0.40;;;;;;;;;;5012352;28;20430;-65
2021/11/03 09:18:33;;;;;;;0.50;0.50;;;;;;;;;;5012317;28;20888;-65
2021/11/03 09:23:33;;;;;;;0.40;0.40;;;;;;;;;;5085809;28;20222;-63
2021/11/03 09:26:00;;;;;;;0.40;0.40;;;;;;;;;;5092156;28;20665;-63
2021/11/03 09:28:27;;;;;;;0.40;0.40;;;;;;;;;;5092112;28;20403;-63
2021/11/03 09:30:53;;;;;;;0.40;0.40;;;;;;;;;;5091960;28;20176;-63
2021/11/03 09:33:19;;;;;;;0.40;0.40;;;;;;;;;;5091985;28;20202;-64
2021/11/03 09:35:46;;;;;;;0.40;0.40;;;;;;;;;;5092063;28;20170;-63
2021/11/03 09:38:14;;;;;;;0.40;0.40;;;;;;;;;;5092006;28;20181;-63
2021/11/03 09:40:49;;;;;;;0.40;0.40;;;;;;;;;;5091848;28;20550;-63
2021/11/03 09:43:26;;;;;;;0.40;0.40;;;;;;;;;;5092145;28;20197;-63
2021/11/03 09:45:52;;;;;;;0.40;0.40;;;;;;;;;;5091977;28;20244;-63
2021/11/03 09:48:35;;;;;;;0.40;0.40;;;;;;;;;;5091738;28;20174;-63
2021/11/03 09:51:03;;;;;;;0.40;0.40;;;;;;;;;;5091434;28;20257;-63
2021/11/03 09:53:55;;;;;;;0.40;0.40;;;;;;;;;;5091301;28;20251;-63
2021/11/03 09:56:23;;;;;;;0.40;0.40;;;;;;;;;;5088735;28;20178;-63
2021/11/03 09:59:08;;;;;;;0.40;0.40;;;;;;;;;;5090379;28;20656;-63
2021/11/03 10:01:34;;;;;;;0.40;0.40;;;;;;;;;;5091429;28;20243;-63
2021/11/03 10:04:04;;;;;;;0.40;0.40;;;;;;;;;;5091647;28;20170;-63
2021/11/03 10:06:49;;;;;;;0.40;0.40;;;;;;;;;;5091599;28;20400;-63
2021/11/03 10:09:15;;;;;;;0.40;0.40;;;;;;;;;;5091476;28;20189;-63
2021/11/03 10:11:45;;;;;;;0.40;0.40;;;;;;;;;;5091291;28;20194;-63
2021/11/03 10:14:11;;;;;;;0.40;0.40;;;;;;;;;;5091407;28;20676;-63
2021/11/03 10:16:39;;;;;;;0.40;0.40;;;;;;;;;;5091536;28;20175;-63
2021/11/03 10:19:14;;;;;;;0.40;0.40;;;;;;;;;;5091497;28;20166;-63
2021/11/03 10:21:43;;;;;;;0.40;0.40;;;;;;;;;;5091046;28;20206;-63
2021/11/03 10:24:12;;;;;;;0.40;0.40;;;;;;;;;;5091341;28;20629;-63
2021/11/03 10:26:58;;;;;;;0.50;0.50;;;;;;;;;;5091595;28;20185;-63
2021/11/03 10:29:42;;;;;;;0.40;0.40;;;;;;;;;;5091377;28;20175;-63
2021/11/03 10:32:08;;;;;;;0.40;0.40;;;;;;;;;;5090923;28;20198;-64
2021/11/03 10:34:34;;;;;;;0.40;0.40;;;;;;;;;;5093754;28;20186;-62
2021/11/03 10:37:12;;;;;;;0.40;0.40;;;;;;;;;;5095423;28;20174;-63
2021/11/03 10:39:58;;;;;;;0.40;0.40;;;;;;;;;;5095321;28;20415;-63
2021/11/03 10:42:28;;;;;;;0.40;0.40;;;;;;;;;;5095004;28;20193;-63
2021/11/03 10:45:23;;;;;;;0.40;0.40;;;;;;;;;;5095238;28;20618;-63
2021/11/03 10:47:52;;;;;;;0.40;0.40;;;;;;;;;;5082411;28;20614;-63
2021/11/03 10:50:23;;;;;;;0.40;0.40;;;;;;;;;;5094919;28;20659;-63
2021/11/03 10:52:57;;;;;;;0.40;0.40;;;;;;;;;;5094985;28;20708;-63
2021/11/03 10:55:23;;;;;;;0.40;0.40;;;;;;;;;;5095125;28;20231;-64
2021/11/03 10:57:55;;;;;;;0.40;0.40;;;;;;;;;;5095069;28;20716;-63
2021/11/03 11:00:21;;;;;;;0.40;0.40;;;;;;;;;;5094803;28;20166;-64
2021/11/03 11:02:56;;;;;;;0.40;0.40;;;;;;;;;;5095345;28;20202;-63
2021/11/03 11:05:24;;;;;;;0.40;0.40;;;;;;;;;;5094786;28;20399;-63
2021/11/03 11:07:52;;;;;;;0.40;0.40;;;;;;;;;;5094877;28;20657;-63
2021/11/03 11:10:24;;;;;;;0.40;0.40;;;;;;;;;;5094773;28;20630;-63
2021/11/03 11:12:51;;;;;;;0.40;0.40;;;;;;;;;;5094668;28;20283;-63
2021/11/03 11:15:26;;;;;;;0.40;0.40;;;;;;;;;;5094856;28;20300;-63
2021/11/03 11:17:54;;;;;;;0.40;0.40;;;;;;;;;;5094561;28;20214;-63
2021/11/03 11:20:31;;;;;;;0.40;0.40;;;;;;;;;;5094523;28;20171;-63
2021/11/03 11:23:19;;;;;;;0.40;0.40;;;;;;;;;;5094732;28;20716;-63
2021/11/03 11:26:05;;;;;;;0.40;0.40;;;;;;;;;;5094608;28;20182;-63
2021/11/03 11:28:31;;;;;;;0.40;0.40;;;;;;;;;;5083677;28;20200;-63
2021/11/03 11:31:01;;;;;;;0.40;0.40;;;;;;;;;;5094104;28;20174;-63
2021/11/03 11:33:28;;;;;;;0.50;0.50;;;;;;;;;;5092963;28;20974;-63
2021/11/03 11:36:13;;;;;;;0.40;0.40;;;;;;;;;;5094318;28;20546;-63
2021/11/03 11:38:45;;;;;;;0.40;0.40;;;;;;;;;;5094098;28;20167;-63
2021/11/03 11:41:20;;;;;;;0.40;0.40;;;;;;;;;;5093563;28;20255;-63
2021/11/03 11:43:50;;;;;;;0.40;0.40;;;;;;;;;;5094271;28;20307;-63
2021/11/03 11:46:21;;;;;;;0.40;0.40;;;;;;;;;;5093199;28;20170;-63
2021/11/03 11:48:51;;;;;;;0.40;0.40;;;;;;;;;;5094013;28;20179;-63
2021/11/03 11:51:27;;;;;;;0.40;0.40;;;;;;;;;;5093720;28;20827;-64
2021/11/03 11:53:55;;;;;;;0.40;0.40;;;;;;;;;;5093839;28;20213;-63
2021/11/03 11:56:24;;;;;;;0.40;0.40;;;;;;;;;;5094074;28;20170;-63
2021/11/03 11:58:55;;;;;;;0.40;0.40;;;;;;;;;;5093895;28;20162;-63
2021/11/03 12:01:39;;;;;;;0.40;0.40;;;;;;;;;;5093540;28;20661;-63
2021/11/03 12:04:05;;;;;;;0.40;0.40;;;;;;;;;;5093796;28;20170;-64
2021/11/03 12:06:45;;;;;;;0.40;0.40;;;;;;;;;;5093687;28;20188;-63
2021/11/03 12:09:23;;;;;;;0.40;0.40;;;;;;;;;;5093683;28;20408;-63
2021/11/03 12:11:55;;;;;;;0.40;0.40;;;;;;;;;;5093823;28;20187;-64
2021/11/03 12:14:21;;;;;;;0.40;0.40;;;;;;;;;;5093358;28;20202;-63
2021/11/03 12:16:55;;;;;;;0.40;0.40;;;;;;;;;;5093784;28;20257;-63
2021/11/03 12:19:36;;;;;;;0.40;0.40;;;;;;;;;;5093485;28;20211;-63
2021/11/03 12:22:05;;;;;;;0.30;0.30;;;;;;;;;;5092900;28;20237;-64
2021/11/03 12:24:33;;;;;;;0.30;0.30;;;;;;;;;;5093227;28;20515;-63
2021/11/03 12:27:16;;;;;;;0.30;0.30;;;;;;;;;;5093291;28;20173;-63
2021/11/03 12:29:43;;;;;;;0.40;0.40;;;;;;;;;;5093414;28;20494;-63
2021/11/03 12:32:23;;;;;;;0.40;0.40;;;;;;;;;;5092979;28;20661;-63
2021/11/03 12:34:49;;;;;;;0.40;0.40;;;;;;;;;;5093533;28;20174;-63
2021/11/03 12:37:15;;;;;;;0.40;0.40;;;;;;;;;;5093146;28;20167;-63
2021/11/03 12:39:43;;;;;;;0.37;0.37;;;;;;;;;;5093142;28;20896;-63
2021/11/03 12:42:13;;;;;;;0.40;0.40;;;;;;;;;;5092671;28;20923;-63
2021/11/03 12:44:44;;;;;;;0.40;0.40;;;;;;;;;;5093001;28;20238;-63
2021/11/03 12:47:27;;;;;;;0.40;0.40;;;;;;;;;;5092884;28;20224;-63
2021/11/03 12:50:14;;;;;;;0.40;0.40;;;;;;;;;;5092934;28;20235;-64
2021/11/03 12:52:51;;;;;;;0.40;0.40;;;;;;;;;;5092757;28;20198;-63
2021/11/03 12:55:25;;;;;;;0.40;0.40;;;;;;;;;;5092771;28;20231;-63
2021/11/03 12:57:53;;;;;;;0.30;0.30;;;;;;;;;;5092543;28;20212;-63
2021/11/03 13:00:20;;;;;;;0.30;0.30;;;;;;;;;;5092535;28;20167;-63
2021/11/03 13:02:57;;;;;;;0.40;0.40;;;;;;;;;;5092525;28;20194;-63
2021/11/03 13:05:25;;;;;;;0.40;0.40;;;;;;;;;;5092587;28;20657;-63
2021/11/03 13:07:51;;;;;;;0.40;0.40;;;;;;;;;;5092659;28;20530;-63
2021/11/03 13:10:23;;;;;;;0.40;0.40;;;;;;;;;;5092332;28;20186;-63
2021/11/03 13:12:51;;;;;;;0.40;0.40;;;;;;;;;;5092523;28;20518;-63
2021/11/03 13:15:23;;;;;;;0.40;0.40;;;;;;;;;;5092969;28;20174;-63
2021/11/03 13:17:51;;;;;;;0.40;0.40;;;;;;;;;;5092371;28;20572;-63
2021/11/03 13:20:22;;;;;;;0.40;0.40;;;;;;;;;;5092273;28;20519;-63
2021/11/03 13:22:51;;;;;;;0.40;0.40;;;;;;;;;;5092074;28;20210;-63
2021/11/03 13:25:22;;;;;;;0.40;0.40;;;;;;;;;;5092542;28;20175;-63
2021/11/03 13:27:48;;;;;;;0.40;0.40;;;;;;;;;;5101665;28;20200;-62
2021/11/03 13:30:23;;;;;;;0.30;0.30;;;;;;;;;;5112399;28;20169;-63
2021/11/03 13:33:00;;;;;;;0.32;0.32;;;;;;;;;;5112319;28;20193;-63
2021/11/03 13:35:31;;;;;;;0.40;0.40;;;;;;;;;;5112177;28;20170;-63
2021/11/03 13:38:00;;;;;;;0.40;0.40;;;;;;;;;;5112509;28;20181;-63
2021/11/03 13:40:26;;;;;;;0.30;0.30;;;;;;;;;;5112288;28;20166;-63
2021/11/03 13:42:55;;;;;;;0.30;0.30;;;;;;;;;;5112503;28;20194;-63
2021/11/03 13:45:42;;;;;;;0.40;0.40;;;;;;;;;;5112270;28;20197;-63
2021/11/03 13:48:11;;;;;;;0.40;0.40;;;;;;;;;;5112268;28;20275;-63
2021/11/03 13:50:49;;;;;;;0.40;0.40;;;;;;;;;;5112041;28;20177;-63
2021/11/03 13:53:15;;;;;;;0.40;0.40;;;;;;;;;;5112219;28;20533;-63
2021/11/03 13:55:50;;;;;;;0.40;0.40;;;;;;;;;;5112177;28;20169;-64
2021/11/03 13:58:38;;;;;;;0.40;0.40;;;;;;;;;;5097605;28;20481;-63
2021/11/03 14:01:20;;;;;;;0.40;0.40;;;;;;;;;;5091479;28;20232;-63
2021/11/03 14:03:49;;;;;;;0.40;0.40;;;;;;;;;;5091921;28;20171;-63
2021/11/03 14:06:29;;;;;;;0.40;0.40;;;;;;;;;;5091849;28;20241;-63
2021/11/03 14:08:55;;;;;;;0.40;0.40;;;;;;;;;;5091434;28;20268;-63
2021/11/03 14:11:23;;;;;;;0.35;0.35;;;;;;;;;;5091356;28;20560;-63
2021/11/03 14:13:49;;;;;;;0.40;0.40;;;;;;;;;;5091236;28;20213;-63
2021/11/03 14:16:24;;;;;;;0.40;0.40;;;;;;;;;;5091623;28;20194;-63
2021/11/03 14:18:51;;;;;;;0.40;0.40;;;;;;;;;;5091581;28;20174;-64
2021/11/03 14:21:17;;;;;;;0.40;0.40;;;;;;;;;;5091527;28;20553;-64
2021/11/03 14:23:43;;;;;;;0.40;0.40;;;;;;;;;;5090243;28;20210;-64
2021/11/03 14:26:13;;;;;;;0.40;0.40;;;;;;;;;;5091678;28;20227;-63
2021/11/03 14:28:40;;;;;;;0.40;0.40;;;;;;;;;;5091464;28;20245;-63
2021/11/03 14:31:14;;;;;;;0.40;0.40;;;;;;;;;;5091650;28;20174;-64
2021/11/03 14:33:41;;;;;;;0.40;0.40;;;;;;;;;;5091640;28;20272;-63
2021/11/03 14:36:09;;;;;;;0.40;0.40;;;;;;;;;;5091567;28;20167;-64
2021/11/03 14:38:36;;;;;;;0.40;0.40;;;;;;;;;;5091362;28;20171;-64
2021/11/03 14:41:04;;;;;;;0.30;0.30;;;;;;;;;;5089345;28;20186;-63
2021/11/03 14:43:31;;;;;;;0.40;0.40;;;;;;;;;;5090539;28;20171;-64
2021/11/03 14:45:57;;;;;;;0.40;0.40;;;;;;;;;;5090595;28;20273;-63
2021/11/03 14:48:26;;;;;;;0.40;0.40;;;;;;;;;;5091400;28;20194;-64
2021/11/03 14:50:53;;;;;;;0.40;0.40;;;;;;;;;;5091248;28;20167;-63
2021/11/03 14:53:21;;;;;;;0.40;0.40;;;;;;;;;;5091229;28;20602;-64